Time;durP1;ratioP1;P1;durP2;ratioP2;P2;SDS_P1;SDS_P2;PMS_P1;PMS_P2;Temp;Humidity;BMP_temperature;BMP_pressure;BME280_temperature;BME280_humidity;BME280_pressure;Samples;Min_cycle;Max_cycle;Signal;HPM_P1;HPM_P2
2021/08/20 00:01:45;;;;;;;;;;;;;;;-144.99;93.47;52431.78;5032023;28;20071;-75
2021/08/20 00:04:12;;;;;;;;;;;;;;;-144.99;93.94;52431.78;5033691;28;19937;-76
2021/08/20 00:06:38;;;;;;;;;;;;;;;-144.99;94.16;52452.16;5009450;28;19984;-76
2021/08/20 00:09:04;;;;;;;;;;;;;;;-144.99;94.14;52386.94;5007081;28;20000;-75
2021/08/20 00:11:32;;;;;;;;;;;;;;;-144.99;94.20;52423.63;5012773;28;19993;-75
2021/08/20 00:13:58;;;;;;;;;;;;;;;-144.99;94.47;52431.78;5020700;28;19997;-76
2021/08/20 00:16:25;;;;;;;;;;;;;;;-144.99;94.89;52478.66;5023923;28;19978;-75
2021/08/20 00:18:51;;;;;;;;;;;;;;;-144.99;94.97;52441.97;5010366;28;19976;-74
2021/08/20 00:21:17;;;;;;;;;;;;;;;-144.99;95.02;52415.47;5010903;28;20004;-75
2021/08/20 00:23:44;;;;;;;;;;;;;;;-144.99;94.74;52423.63;5021192;28;19993;-75
2021/08/20 00:26:10;;;;;;;;;;;;;;;-144.99;95.20;52431.78;5017960;28;20004;-74
2021/08/20 00:28:38;;;;;;;;;;;;;;;-144.99;95.55;52415.47;5023611;28;19976;-75
2021/08/20 00:31:04;;;;;;;;;;;;;;;-144.99;95.67;52397.13;5015195;28;19977;-75
2021/08/20 00:33:32;;;;;;;;;;;;;;;-144.99;95.86;52472.56;5023780;28;19996;-76
2021/08/20 00:35:58;;;;;;;;;;;;;;;-144.99;96.01;52423.63;5017009;28;20395;-74
2021/08/20 00:38:25;;;;;;;;;;;;;;;-144.99;96.34;52435.88;5027783;28;20436;-75
2021/08/20 00:40:51;;;;;;;;;;;;;;;-144.99;96.52;52460.31;5029234;28;19972;-75
2021/08/20 00:43:18;;;;;;;;;;;;;;;-144.99;96.66;52413.44;5021470;28;19992;-74
2021/08/20 00:45:54;;;;;;;;;;;;;;;-144.99;97.16;52454.22;5022410;28;20027;-75
2021/08/20 00:48:20;;;;;;;;;;;;;;;-144.99;97.06;52444.03;5015896;28;19972;-74
2021/08/20 00:50:46;;;;;;;;;;;;;;;-144.99;97.45;52444.03;5015758;28;19973;-74
2021/08/20 00:53:13;;;;;;;;;;;;;;;-144.99;97.69;52444.03;5016202;28;20022;-75
2021/08/20 00:55:39;;;;;;;;;;;;;;;-144.99;97.74;52433.81;5027694;28;19972;-76
2021/08/20 00:58:06;;;;;;;;;;;;;;;-144.99;97.68;52456.25;5024355;28;20141;-76
2021/08/20 01:00:32;;;;;;;;;;;;;;;-144.99;97.90;52431.78;5016829;28;19997;-75
2021/08/20 01:03:00;;;;;;;;;;;;;;;-144.99;97.83;52431.78;5014252;28;19995;-75
2021/08/20 01:05:26;;;;;;;;;;;;;;;-144.99;97.74;52448.09;5014036;28;20107;-75
2021/08/20 01:07:53;;;;;;;;;;;;;;;-144.99;97.37;52427.72;5009582;28;19941;-76
2021/08/20 01:10:19;;;;;;;;;;;;;;;-144.99;97.26;52399.19;5013362;28;20162;-75
2021/08/20 01:12:45;;;;;;;;;;;;;;;-144.99;97.07;52431.78;5012981;28;19964;-75
2021/08/20 01:15:12;;;;;;;;;;;;;;;-144.99;97.37;52456.25;5019489;28;19991;-75
2021/08/20 01:17:39;;;;;;;;;;;;;;;-144.99;97.46;52435.88;5017002;28;20027;-75
2021/08/20 01:20:09;;;;;;;;;;;;;;;-144.99;97.41;52423.63;5017975;28;20360;-77
2021/08/20 01:22:36;;;;;;;;;;;;;;;-144.99;97.62;52427.72;5024998;28;19996;-77
2021/08/20 01:25:04;;;;;;;;;;;;;;;-144.99;98.09;52407.31;5017668;28;19992;-74
2021/08/20 01:27:33;;;;;;;;;;;;;;;-144.99;98.04;52433.81;5029741;28;20436;-75
2021/08/20 01:29:59;;;;;;;;;;;;;;;-144.99;98.17;52431.78;5009203;28;19977;-74
2021/08/20 01:32:26;;;;;;;;;;;;;;;-144.99;98.23;52452.16;5005106;28;20399;-75
2021/08/20 01:34:52;;;;;;;;;;;;;;;-144.99;98.32;52452.16;5017451;28;20376;-75
2021/08/20 01:37:19;;;;;;;;;;;;;;;-144.99;98.49;52456.25;5017722;28;20440;-75
2021/08/20 01:39:45;;;;;;;;;;;;;;;-144.99;98.50;52450.13;5020170;28;19988;-75
2021/08/20 01:42:13;;;;;;;;;;;;;;;-144.99;98.25;52431.78;5026891;28;19977;-75
2021/08/20 01:44:41;;;;;;;;;;;;;;;-144.99;98.55;52456.25;5020246;28;19996;-75
2021/08/20 01:47:09;;;;;;;;;;;;;;;-144.99;98.72;52421.59;5022796;28;19946;-75
2021/08/20 01:49:36;;;;;;;;;;;;;;;-144.99;98.64;52427.72;5030844;28;19936;-75
2021/08/20 01:52:02;;;;;;;;;;;;;;;-144.99;99.26;52448.09;5038398;28;20103;-76
2021/08/20 01:54:29;;;;;;;;;;;;;;;-144.99;99.28;52480.72;5035352;28;20005;-75
2021/08/20 01:56:55;;;;;;;;;;;;;;;-144.99;99.46;52439.94;5024946;28;19998;-75
2021/08/20 01:59:23;;;;;;;;;;;;;;;-144.99;99.92;52435.88;5017761;28;19984;-75
2021/08/20 02:01:49;;;;;;;;;;;;;;;-144.99;100.00;52452.16;5014140;28;19943;-76
2021/08/20 02:04:15;;;;;;;;;;;;;;;-144.99;99.93;52462.34;5005200;28;19992;-75
2021/08/20 02:06:42;;;;;;;;;;;;;;;-144.99;100.00;52456.25;5007704;28;19983;-76
2021/08/20 02:09:08;;;;;;;;;;;;;;;-144.99;100.00;52435.88;5019926;28;20464;-74
2021/08/20 02:11:34;;;;;;;;;;;;;;;-144.99;100.00;52431.78;5032207;28;20456;-74
2021/08/20 02:14:01;;;;;;;;;;;;;;;-144.99;100.00;52452.16;5018811;28;20380;-76
2021/08/20 02:16:28;;;;;;;;;;;;;;;-144.99;100.00;52435.88;5013932;28;19980;-75
2021/08/20 02:18:55;;;;;;;;;;;;;;;-144.99;100.00;52446.06;5012984;28;19973;-74
2021/08/20 02:21:21;;;;;;;;;;;;;;;-144.99;100.00;52439.94;5018909;28;19980;-76
2021/08/20 02:23:47;;;;;;;;;;;;;;;-144.99;100.00;52452.16;5035394;28;19996;-75
2021/08/20 02:26:14;;;;;;;;;;;;;;;-144.99;100.00;52456.25;5031772;28;20083;-75
2021/08/20 02:28:40;;;;;;;;;;;;;;;-144.99;100.00;52439.94;5023417;28;19983;-73
2021/08/20 02:31:06;;;;;;;;;;;;;;;-144.99;100.00;52450.13;5011542;28;20363;-76
2021/08/20 02:33:34;;;;;;;;;;;;;;;-144.99;100.00;52431.78;5004505;28;19999;-75
2021/08/20 02:36:02;;;;;;;;;;;;;;;-144.99;100.00;52411.41;5031195;28;20374;-75
2021/08/20 02:38:28;;;;;;;;;;;;;;;-144.99;100.00;52435.88;5021217;28;20059;-75
2021/08/20 02:40:55;;;;;;;;;;;;;;;-144.99;100.00;52435.88;5022095;28;19947;-75
2021/08/20 02:43:21;;;;;;;;;;;;;;;-144.99;100.00;52439.94;5028802;28;19989;-74
2021/08/20 02:45:47;;;;;;;;;;;;;;;-144.99;100.00;52439.94;5024993;28;19985;-76
2021/08/20 02:48:14;;;;;;;;;;;;;;;-144.99;100.00;52427.72;5012791;28;20414;-75
2021/08/20 02:50:41;;;;;;;;;;;;;;;-144.99;100.00;52431.78;5018329;28;19975;-74
2021/08/20 02:53:08;;;;;;;;;;;;;;;-144.99;100.00;52419.56;5031182;28;19996;-76
2021/08/20 02:55:34;;;;;;;;;;;;;;;-144.99;100.00;52448.09;5017721;28;20416;-75
2021/08/20 02:58:00;;;;;;;;;;;;;;;-144.99;100.00;52488.84;5014087;28;19977;-75
2021/08/20 03:00:27;;;;;;;;;;;;;;;-144.99;100.00;52423.63;5013335;28;20016;-76
2021/08/20 03:02:53;;;;;;;;;;;;;;;-144.99;100.00;52435.88;5005398;28;19974;-76
2021/08/20 03:05:19;;;;;;;;;;;;;;;-144.99;100.00;52448.09;5009249;28;20513;-77
2021/08/20 03:07:47;;;;;;;;;;;;;;;-144.99;100.00;52399.19;5005895;28;20452;-77
2021/08/20 03:10:14;;;;;;;;;;;;;;;-144.99;100.00;52460.31;5023604;28;19976;-77
2021/08/20 03:12:40;;;;;;;;;;;;;;;-144.99;100.00;52413.44;5026465;28;19985;-78
2021/08/20 03:15:07;;;;;;;;;;;;;;;-144.99;100.00;52452.16;5026788;28;20377;-77
2021/08/20 03:17:34;;;;;;;;;;;;;;;-144.99;100.00;52407.31;5021271;28;19969;-78
2021/08/20 03:20:00;;;;;;;;;;;;;;;-144.99;100.00;52468.47;5011402;28;19954;-77
2021/08/20 03:22:26;;;;;;;;;;;;;;;-144.99;100.00;52468.47;5020049;28;19961;-77
2021/08/20 03:24:54;;;;;;;;;;;;;;;-144.99;100.00;52419.56;5031671;28;19984;-76
2021/08/20 03:27:20;;;;;;;;;;;;;;;-144.99;100.00;52415.47;5016049;28;19958;-78
2021/08/20 03:29:47;;;;;;;;;;;;;;;-144.99;100.00;52444.03;5013767;28;19951;-76
2021/08/20 03:32:13;;;;;;;;;;;;;;;-144.99;100.00;52472.56;5004722;28;19972;-76
2021/08/20 03:34:39;;;;;;;;;;;;;;;-144.99;100.00;52439.94;5026816;28;19994;-77
2021/08/20 03:37:06;;;;;;;;;;;;;;;-144.99;100.00;52407.31;5023293;28;19975;-77
2021/08/20 03:39:32;;;;;;;;;;;;;;;-144.99;100.00;52464.41;5028001;28;19985;-78
2021/08/20 03:42:00;;;;;;;;;;;;;;;-144.99;100.00;52468.47;5031117;28;19994;-77
2021/08/20 03:44:26;;;;;;;;;;;;;;;-144.99;100.00;52437.91;5026243;28;19979;-75
2021/08/20 03:46:52;;;;;;;;;;;;;;;-144.99;100.00;52417.53;5018565;28;19973;-75
2021/08/20 03:49:19;;;;;;;;;;;;;;;-144.99;100.00;52407.31;5011646;28;20368;-75
2021/08/20 03:51:45;;;;;;;;;;;;;;;-144.99;100.00;52444.03;5010549;28;20347;-75
2021/08/20 03:54:11;;;;;;;;;;;;;;;-144.99;100.00;52460.31;5012224;28;19986;-74
2021/08/20 03:56:38;;;;;;;;;;;;;;;-144.99;100.00;52435.88;5018286;28;20012;-74
2021/08/20 03:59:05;;;;;;;;;;;;;;;-144.99;100.00;52448.09;5014873;28;19948;-74
2021/08/20 04:01:32;;;;;;;;;;;;;;;-144.99;100.00;52433.81;5008830;28;19967;-74
2021/08/20 04:03:58;;;;;;;;;;;;;;;-144.99;100.00;52444.03;5003874;28;19990;-74
2021/08/20 04:06:24;;;;;;;;;;;;;;;-144.99;100.00;52448.09;5010782;28;19973;-74
2021/08/20 04:08:51;;;;;;;;;;;;;;;-144.99;100.00;52437.91;5006800;28;19977;-74
2021/08/20 04:11:17;;;;;;;;;;;;;;;-144.99;100.00;52407.31;5020277;28;19986;-74
2021/08/20 04:13:43;;;;;;;;;;;;;;;-144.99;100.00;52448.09;5027250;28;20007;-75
2021/08/20 04:16:11;;;;;;;;;;;;;;;-144.99;100.00;52476.63;5017054;28;19983;-74
2021/08/20 04:18:40;;;;;;;;;;;;;;;-144.99;100.00;52431.78;5012080;28;19977;-73
2021/08/20 04:21:06;;;;;;;;;;;;;;;-144.99;100.00;52431.78;5015789;28;20432;-72
2021/08/20 04:23:32;;;;;;;;;;;;;;;-144.99;100.00;52435.88;5010057;28;19997;-74
2021/08/20 04:25:59;;;;;;;;;;;;;;;-144.99;100.00;52435.88;5017805;28;19977;-75
2021/08/20 04:28:25;;;;;;;;;;;;;;;-144.99;100.00;52435.88;5027987;28;20291;-75
2021/08/20 04:30:51;;;;;;;;;;;;;;;-144.99;100.00;52407.31;5009424;28;19973;-74
2021/08/20 04:33:19;;;;;;;;;;;;;;;-144.99;100.00;52435.88;5002739;28;20023;-75
2021/08/20 04:35:45;;;;;;;;;;;;;;;-144.99;100.00;52423.63;5023965;28;20455;-74
2021/08/20 04:38:12;;;;;;;;;;;;;;;-144.99;100.00;52435.88;5020286;28;20012;-76
2021/08/20 04:40:38;;;;;;;;;;;;;;;-144.99;100.00;52427.72;5025845;28;20055;-76
2021/08/20 04:43:04;;;;;;;;;;;;;;;-144.99;100.00;52478.66;5017882;28;19980;-76
2021/08/20 04:45:31;;;;;;;;;;;;;;;-144.99;100.00;52452.16;5014223;28;19986;-77
2021/08/20 04:47:57;;;;;;;;;;;;;;;-144.99;100.00;52437.91;5019969;28;19976;-76
2021/08/20 04:50:28;;;;;;;;;;;;;;;-144.99;100.00;52444.03;5017905;28;20429;-76
2021/08/20 04:52:55;;;;;;;;;;;;;;;-144.99;100.00;52407.31;5005352;28;19992;-79
2021/08/20 04:55:21;;;;;;;;;;;;;;;-144.99;100.00;52403.25;5024695;28;20032;-79
2021/08/20 04:57:47;;;;;;;;;;;;;;;-144.99;100.00;52433.81;5015315;28;19984;-79
2021/08/20 05:00:14;;;;;;;;;;;;;;;-144.99;100.00;52417.53;5015293;28;19982;-79
2021/08/20 05:02:40;;;;;;;;;;;;;;;-144.99;100.00;52431.78;5014190;28;19988;-78
2021/08/20 05:05:07;;;;;;;;;;;;;;;-144.99;100.00;52439.94;5004359;28;20003;-76
2021/08/20 05:07:36;;;;;;;;;;;;;;;-144.99;100.00;52427.72;5011579;28;20408;-75
2021/08/20 05:10:05;;;;;;;;;;;;;;;-144.99;100.00;52444.03;5010044;28;19977;-73
2021/08/20 05:12:32;;;;;;;;;;;;;;;-144.99;100.00;52444.03;5027406;28;20356;-75
2021/08/20 05:14:58;;;;;;;;;;;;;;;-144.99;100.00;52425.66;5014577;28;20639;-75
2021/08/20 05:17:24;;;;;;;;;;;;;;;-144.99;100.00;52433.81;5028514;28;19977;-75
2021/08/20 05:19:51;;;;;;;;;;;;;;;-144.99;100.00;52448.09;5016124;28;19982;-77
2021/08/20 05:22:17;;;;;;;;;;;;;;;-144.99;100.00;52468.47;5013962;28;20060;-76
2021/08/20 05:24:45;;;;;;;;;;;;;;;-144.99;100.00;52460.31;5015003;28;19988;-76
2021/08/20 05:27:11;;;;;;;;;;;;;;;-144.99;100.00;52423.63;5015022;28;19992;-76
2021/08/20 05:29:37;;;;;;;;;;;;;;;-144.99;100.00;52464.41;5013716;28;19974;-76
2021/08/20 05:32:04;;;;;;;;;;;;;;;-144.99;100.00;52427.72;5006797;28;19978;-77
2021/08/20 05:34:30;;;;;;;;;;;;;;;-144.99;100.00;52456.25;5023931;28;20481;-78
2021/08/20 05:36:57;;;;;;;;;;;;;;;-144.99;100.00;52448.09;5006837;28;20028;-78
2021/08/20 05:39:25;;;;;;;;;;;;;;;-144.99;100.00;52419.56;5026498;28;20391;-77
2021/08/20 05:41:52;;;;;;;;;;;;;;;-144.99;100.00;52419.56;5019161;28;19974;-78
2021/08/20 05:44:19;;;;;;;;;;;;;;;-144.99;100.00;52391.03;5046383;28;20062;-77
2021/08/20 05:46:45;;;;;;;;;;;;;;;-144.99;100.00;52419.56;5010192;28;20063;-75
2021/08/20 05:49:11;;;;;;;;;;;;;;;-144.99;100.00;52444.03;5013481;28;20454;-75
2021/08/20 05:51:38;;;;;;;;;;;;;;;-144.99;100.00;52452.16;5014013;28;19980;-74
2021/08/20 05:54:04;;;;;;;;;;;;;;;-144.99;100.00;52480.72;5014387;28;19998;-75
2021/08/20 05:56:30;;;;;;;;;;;;;;;-144.99;100.00;52393.06;5008048;28;19978;-75
2021/08/20 05:58:58;;;;;;;;;;;;;;;-144.99;100.00;52425.66;5012753;28;19982;-74
2021/08/20 06:01:24;;;;;;;;;;;;;;;-144.99;100.00;52472.56;5012043;28;19980;-75
2021/08/20 06:03:50;;;;;;;;;;;;;;;-144.99;100.00;52382.88;5009002;28;19993;-75
2021/08/20 06:06:17;;;;;;;;;;;;;;;-144.99;100.00;52415.47;5004742;28;19978;-77
2021/08/20 06:08:43;;;;;;;;;;;;;;;-144.99;100.00;52427.72;5007489;28;20045;-77
2021/08/20 06:11:09;;;;;;;;;;;;;;;-144.99;100.00;52439.94;5025043;28;19977;-78
2021/08/20 06:13:36;;;;;;;;;;;;;;;-144.99;100.00;52415.47;5043254;28;20004;-77
2021/08/20 06:16:04;;;;;;;;;;;;;;;-144.99;100.00;52382.88;5033995;28;19986;-77
2021/08/20 06:18:30;;;;;;;;;;;;;;;-144.99;100.00;52435.88;5011784;28;19978;-77
2021/08/20 06:20:56;;;;;;;;;;;;;;;-144.99;100.00;52417.53;5050950;28;19980;-80
2021/08/20 06:23:23;;;;;;;;;;;;;;;-144.99;100.00;52407.31;5034825;28;20008;-74
2021/08/20 06:25:50;;;;;;;;;;;;;;;-144.99;100.00;52391.03;5036212;28;19984;-76
2021/08/20 06:28:16;;;;;;;;;;;;;;;-144.99;100.00;52460.31;5026024;28;20442;-74
2021/08/20 06:30:46;;;;;;;;;;;;;;;-144.99;100.00;52407.31;5019200;28;19974;-76
2021/08/20 06:33:14;;;;;;;;;;;;;;;-144.99;100.00;52380.84;5007612;28;19981;-75
2021/08/20 06:35:41;;;;;;;;;;;;;;;-144.99;100.00;52415.47;5029948;28;20036;-76
2021/08/20 06:38:08;;;;;;;;;;;;;;;-144.99;100.00;52386.94;5021283;28;20250;-75
2021/08/20 06:40:34;;;;;;;;;;;;;;;-144.99;100.00;52439.94;5029597;28;19992;-74
2021/08/20 06:43:00;;;;;;;;;;;;;;;-144.99;99.74;52419.56;5037025;28;19978;-74
2021/08/20 06:45:27;;;;;;;;;;;;;;;-144.99;99.76;52407.31;5040881;28;19980;-77
2021/08/20 06:47:53;;;;;;;;;;;;;;;-144.99;99.69;52374.72;5028362;28;19994;-78
2021/08/20 06:50:21;;;;;;;;;;;;;;;-144.99;99.62;52456.25;5031480;28;19981;-76
2021/08/20 06:52:47;;;;;;;;;;;;;;;-144.99;99.33;52380.84;5023672;28;20001;-75
2021/08/20 06:55:13;;;;;;;;;;;;;;;-144.99;99.93;52427.72;5027166;28;20011;-77
2021/08/20 06:57:40;;;;;;;;;;;;;;;-144.99;99.71;52419.56;5040527;28;19974;-76
2021/08/20 07:00:06;;;;;;;;;;;;;;;-144.99;100.00;52452.16;5028783;28;19989;-78
2021/08/20 07:02:40;;;;;;;;;;;;;;;-144.99;100.00;52413.44;5028299;28;20041;-77
2021/08/20 07:05:07;;;;;;;;;;;;;;;-144.99;100.00;52407.31;5017679;28;19998;-75
2021/08/20 07:07:34;;;;;;;;;;;;;;;-144.99;100.00;52407.31;5022391;28;20049;-78
2021/08/20 07:10:01;;;;;;;;;;;;;;;-144.99;99.74;52378.78;5028313;28;19978;-76
2021/08/20 07:12:27;;;;;;;;;;;;;;;-144.99;99.67;52407.31;5047260;28;19984;-75
2021/08/20 07:14:53;;;;;;;;;;;;;;;-144.99;99.68;52374.72;5034209;28;20004;-75
2021/08/20 07:17:20;;;;;;;;;;;;;;;-144.99;100.00;52431.78;5011419;28;20118;-77
2021/08/20 07:19:46;;;;;;;;;;;;;;;-144.99;100.00;52431.78;5021785;28;19986;-78
2021/08/20 07:22:12;;;;;;;;;;;;;;;-144.99;100.00;52427.72;5031019;28;19986;-72
2021/08/20 07:24:40;;;;;;;;;;;;;;;-144.99;100.00;52378.78;5011404;28;20005;-76
2021/08/20 07:27:06;;;;;;;;;;;;;;;-144.99;100.00;52417.53;5011638;28;19940;-75
2021/08/20 07:29:33;;;;;;;;;;;;;;;-144.99;100.00;52419.56;5016553;28;19970;-75
2021/08/20 07:31:59;;;;;;;;;;;;;;;-144.99;99.79;52423.63;5005216;28;19977;-76
2021/08/20 07:34:25;;;;;;;;;;;;;;;-144.99;99.85;52391.03;5011625;28;19997;-75
2021/08/20 07:36:52;;;;;;;;;;;;;;;-144.99;98.53;52386.94;5033569;28;20480;-74
2021/08/20 07:39:18;;;;;;;;;;;;;;;-144.99;98.75;52403.25;5020844;28;20426;-75
2021/08/20 07:41:46;;;;;;;;;;;;;;;-144.99;99.26;52411.41;5026421;28;20492;-74
2021/08/20 07:44:14;;;;;;;;;;;;;;;-144.99;99.16;52399.19;5020974;28;20074;-75
2021/08/20 07:46:41;;;;;;;;;;;;;;;-144.99;99.36;52415.47;5030909;28;19973;-74
2021/08/20 07:49:07;;;;;;;;;;;;;;;-144.99;99.95;52374.72;5032205;28;19988;-73
2021/08/20 07:51:33;;;;;;;;;;;;;;;-144.99;100.00;52395.09;5027087;28;19983;-74
2021/08/20 07:53:59;;;;;;;;;;;;;;;-144.99;100.00;52437.91;5028986;28;20004;-76
2021/08/20 07:56:26;;;;;;;;;;;;;;;-144.99;100.00;52401.22;5016328;28;19976;-73
2021/08/20 07:58:53;;;;;;;;;;;;;;;-144.99;100.00;52395.09;5016469;28;19972;-73
2021/08/20 08:01:20;;;;;;;;;;;;;;;-144.99;100.00;52403.25;5013473;28;19976;-74
2021/08/20 08:03:46;;;;;;;;;;;;;;;-144.99;100.00;52395.09;5003006;28;20086;-74
2021/08/20 08:06:13;;;;;;;;;;;;;;;-144.99;100.00;52413.44;5001051;28;20141;-78
2021/08/20 08:08:39;;;;;;;;;;;;;;;-144.99;100.00;52374.72;4996386;28;20042;-73
2021/08/20 08:11:06;;;;;;;;;;;;;;;-144.99;98.85;52399.19;5008225;28;19979;-75
2021/08/20 08:13:32;;;;;;;;;;;;;;;-144.99;97.91;52370.63;5000183;28;20111;-75
2021/08/20 08:16:00;;;;;;;;;;;;;;;-144.99;95.54;52358.41;5018287;28;20000;-75
2021/08/20 08:18:26;;;;;;;;;;;;;;;-144.99;95.56;52372.69;5009075;28;20138;-75
2021/08/20 08:20:52;;;;;;;;;;;;;;;-144.99;95.48;52386.94;5012268;28;20356;-75
2021/08/20 08:23:19;;;;;;;;;;;;;;;-144.99;95.28;52370.63;5017094;28;19987;-75
2021/08/20 08:25:45;;;;;;;;;;;;;;;-144.99;93.62;52329.88;5015682;28;20059;-76
2021/08/20 08:28:11;;;;;;;;;;;;;;;-144.99;93.28;52374.72;5011851;28;19972;-75
2021/08/20 08:30:39;;;;;;;;;;;;;;;-144.99;93.84;52397.13;5006563;28;19973;-75
2021/08/20 08:33:07;;;;;;;;;;;;;;;-144.99;93.19;52407.31;5009124;28;20043;-76
2021/08/20 08:35:34;;;;;;;;;;;;;;;-144.99;92.56;52388.97;5005497;28;20083;-76
2021/08/20 08:38:04;;;;;;;;;;;;;;;-144.99;93.29;52366.56;5014129;28;19983;-75
2021/08/20 08:40:30;;;;;;;;;;;;;;;-144.99;94.09;52407.31;5009348;28;20054;-75
2021/08/20 08:42:57;;;;;;;;;;;;;;;-144.99;94.84;52366.56;5033554;28;20454;-75
2021/08/20 08:45:24;;;;;;;;;;;;;;;-144.99;95.75;52350.25;5036698;28;19980;-76
2021/08/20 08:47:53;;;;;;;;;;;;;;;-144.99;96.38;52391.03;5019225;28;19975;-75
2021/08/20 08:50:21;;;;;;;;;;;;;;;-144.99;97.21;52397.13;5017368;28;20025;-75
2021/08/20 08:52:48;;;;;;;;;;;;;;;-144.99;97.17;52391.03;5013307;28;19973;-75
2021/08/20 08:55:14;;;;;;;;;;;;;;;-144.99;97.50;52409.38;5018287;28;20001;-75
2021/08/20 08:57:41;;;;;;;;;;;;;;;-144.99;98.19;52362.50;5007232;28;20472;-76
2021/08/20 09:00:08;;;;;;;;;;;;;;;-144.99;98.46;52354.34;5015641;28;19976;-75
2021/08/20 09:02:35;;;;;;;;;;;;;;;-144.99;99.95;52407.31;5014020;28;19971;-77
2021/08/20 09:05:02;;;;;;;;;;;;;;;-144.99;99.85;52421.59;5014452;28;19992;-78
2021/08/20 09:07:30;;;;;;;;;;;;;;;-144.99;100.00;52411.41;5005765;28;19999;-77
2021/08/20 09:10:18;;;;;;;;;;;;;;;-144.99;100.00;52407.31;5014146;28;20144;-76
2021/08/20 09:12:52;;;;;;;;;;;;;;;-144.99;100.00;52415.47;5015285;28;19984;-77
2021/08/20 09:15:19;;;;;;;;;;;;;;;-144.99;100.00;52415.47;5017029;28;20042;-78
2021/08/20 09:17:47;;;;;;;;;;;;;;;-144.99;100.00;52378.78;5024943;28;19971;-77
2021/08/20 09:20:14;;;;;;;;;;;;;;;-144.99;100.00;52403.25;5017389;28;20067;-78
2021/08/20 09:22:42;;;;;;;;;;;;;;;-144.99;100.00;52395.09;5033342;28;19988;-79
2021/08/20 09:25:09;;;;;;;;;;;;;;;-144.99;100.00;52431.78;5030539;28;20460;-79
2021/08/20 09:27:35;;;;;;;;;;;;;;;-144.99;100.00;52415.47;5026591;28;19980;-79
2021/08/20 09:30:06;;;;;;;;;;;;;;;-144.99;100.00;52382.88;5023498;28;19972;-79
2021/08/20 09:32:32;;;;;;;;;;;;;;;-144.99;100.00;52427.72;5013000;28;20020;-79
2021/08/20 09:34:59;;;;;;;;;;;;;;;-144.99;100.00;52393.06;5007051;28;20256;-77
2021/08/20 09:37:25;;;;;;;;;;;;;;;-144.99;100.00;52382.88;5012389;28;19978;-77
2021/08/20 09:39:58;;;;;;;;;;;;;;;-144.99;100.00;52423.63;5033703;28;19987;-78
2021/08/20 09:42:24;;;;;;;;;;;;;;;-144.99;100.00;52403.25;5014425;28;19977;-77
2021/08/20 09:45:06;;;;;;;;;;;;;;;-144.99;100.00;52431.78;5014831;28;19992;-77
2021/08/20 09:47:32;;;;;;;;;;;;;;;-144.99;100.00;52397.13;5017565;28;19979;-77
2021/08/20 09:49:59;;;;;;;;;;;;;;;-144.99;100.00;52423.63;5014682;28;19977;-78
2021/08/20 09:52:26;;;;;;;;;;;;;;;-144.99;100.00;52395.09;5006408;28;20055;-78
2021/08/20 09:54:54;;;;;;;;;;;;;;;-144.99;100.00;52393.06;5023532;28;20103;-75
2021/08/20 09:57:21;;;;;;;;;;;;;;;-144.99;100.00;52384.91;5013803;28;19977;-77
2021/08/20 09:59:48;;;;;;;;;;;;;;;-144.99;100.00;52374.72;5029531;28;19980;-75
2021/08/20 10:02:19;;;;;;;;;;;;;;;-144.99;100.00;52386.94;5016226;28;20122;-79
2021/08/20 10:04:46;;;;;;;;;;;;;;;-144.99;100.00;52342.09;5010649;28;19988;-77
2021/08/20 10:07:16;;;;;;;;;;;;;;;-144.99;100.00;52346.19;5008205;28;19982;-77
2021/08/20 10:09:43;;;;;;;;;;;;;;;-144.99;100.00;52331.91;5019172;28;19974;-77
2021/08/20 10:12:11;;;;;;;;;;;;;;;-144.99;100.00;52333.94;5013422;28;19981;-77
2021/08/20 10:14:38;;;;;;;;;;;;;;;-144.99;98.89;52327.84;5031896;28;20369;-78
2021/08/20 10:17:05;;;;;;;;;;;;;;;-144.99;95.77;52313.56;5012082;28;20428;-78
2021/08/20 10:19:32;;;;;;;;;;;;;;;-144.99;93.94;52352.28;5006605;28;20446;-77
2021/08/20 10:21:59;;;;;;;;;;;;;;;-144.99;94.45;52317.66;5030905;28;19981;-79
2021/08/20 10:24:26;;;;;;;;;;;;;;;-144.99;91.72;52329.88;5033408;28;20054;-78
2021/08/20 10:26:54;;;;;;;;;;;;;;;-144.99;92.28;52372.69;5033733;28;20020;-81
2021/08/20 10:29:23;;;;;;;;;;;;;;;-144.99;91.64;52305.41;5002278;28;19981;-78
2021/08/20 10:31:49;;;;;;;;;;;;;;;-144.99;92.38;52319.69;5004958;28;20024;-79
2021/08/20 10:34:34;;;;;;;;;;;;;;;-144.99;89.87;52280.97;5014836;28;20020;-77
2021/08/20 10:37:08;;;;;;;;;;;;;;;-144.99;88.81;52264.66;5008659;28;19981;-78
2021/08/20 10:39:35;;;;;;;;;;;;;;;-144.99;88.04;52386.94;5029361;28;20717;-80
2021/08/20 10:42:06;;;;;;;;;;;;;;;-144.99;88.68;52325.81;5033056;28;20486;-78
2021/08/20 10:44:37;;;;;;;;;;;;;;;-144.99;89.94;52317.66;5022518;28;19992;-78
2021/08/20 10:47:04;;;;;;;;;;;;;;;-144.99;91.48;52370.63;5022409;28;20347;-78
2021/08/20 10:49:41;;;;;;;;;;;;;;;-144.99;93.15;52362.50;5026225;28;20027;-78
2021/08/20 10:52:07;;;;;;;;;;;;;;;-144.99;93.62;52348.22;5012632;28;19979;-79
2021/08/20 10:54:52;;;;;;;;;;;;;;;-144.99;92.87;52344.16;5014127;28;20006;-77
2021/08/20 10:57:38;;;;;;;;;;;;;;;-144.99;92.05;52358.41;5039590;28;19976;-79
2021/08/20 11:00:06;;;;;;;;;;;;;;;-144.99;90.84;52183.13;5056335;28;20033;-79
2021/08/20 11:02:42;;;;;;;;;;;;;;;-144.99;87.20;52313.56;5039073;28;20148;-80
2021/08/20 11:05:09;;;;;;;;;;;;;;;-144.99;86.14;52366.56;5024457;28;20092;-78
2021/08/20 11:07:45;;;;;;;;;;;;;;;-144.99;85.05;52358.41;5026859;28;20037;-77
2021/08/20 11:10:30;;;;;;;;;;;;;;;-144.99;85.46;52323.75;5033569;28;19963;-77
2021/08/20 11:13:00;;;;;;;;;;;;;;;-144.99;85.35;52354.34;5042520;28;20008;-79
2021/08/20 11:15:41;;;;;;;;;;;;;;;-144.99;85.26;52333.94;5051336;28;19994;-79
2021/08/20 11:18:09;;;;;;;;;;;;;;;-144.99;85.73;52321.72;5041933;28;19976;-79
2021/08/20 11:20:37;;;;;;;;;;;;;;;-144.99;84.15;52388.97;5041087;28;20069;-79
2021/08/20 11:23:17;;;;;;;;;;;;;;;-144.99;85.48;52338.03;5044544;28;20030;-78
2021/08/20 11:25:44;;;;;;;;;;;;;;;-144.99;84.78;52244.28;5012081;28;19966;-78
2021/08/20 11:28:16;;;;;;;;;;;;;;;-144.99;83.94;52346.19;5025345;28;20309;-78
2021/08/20 11:30:42;;;;;;;;;;;;;;;-144.99;82.40;52293.19;5024731;28;19964;-79
2021/08/20 11:33:17;;;;;;;;;;;;;;;-144.99;80.68;52329.88;5020630;28;19965;-79
2021/08/20 11:35:46;;;;;;;;;;;;;;;-144.99;80.61;52321.72;5036095;28;20049;-79
2021/08/20 11:38:12;;;;;;;;;;;;;;;-144.99;80.87;52358.41;5042101;28;19942;-80
2021/08/20 11:40:52;;;;;;;;;;;;;;;-144.99;82.29;52325.81;5043956;28;19984;-79
2021/08/20 11:43:18;;;;;;;;;;;;;;;-144.99;82.38;52321.72;5044429;28;20026;-81
2021/08/20 11:45:45;;;;;;;;;;;;;;;-144.99;82.46;52338.03;5042677;28;19959;-79
2021/08/20 11:48:12;;;;;;;;;;;;;;;-144.99;82.41;52372.69;5033731;28;19977;-79
2021/08/20 11:50:39;;;;;;;;;;;;;;;-144.99;82.65;52338.03;5025145;28;19964;-78
2021/08/20 11:53:06;;;;;;;;;;;;;;;-144.99;83.29;52301.34;5011621;28;19977;-78
2021/08/20 11:55:32;;;;;;;;;;;;;;;-144.99;83.73;52289.13;5038951;23;19966;-80
2021/08/20 11:57:58;;;;;;;;;;;;;;;-144.99;83.61;52358.41;5031359;28;19931;-78
2021/08/20 12:00:36;;;;;;;;;;;;;;;-144.99;84.04;52360.44;5029993;28;20340;-79
2021/08/20 12:03:06;;;;;;;;;;;;;;;-144.99;85.70;52338.03;5025982;28;20266;-77
2021/08/20 12:05:32;;;;;;;;;;;;;;;-144.99;87.42;52325.81;5030215;28;20494;-82
2021/08/20 12:08:13;;;;;;;;;;;;;;;-144.99;88.63;52254.47;5026604;28;19951;-79
2021/08/20 12:10:42;;;;;;;;;;;;;;;-144.99;86.75;52252.44;5024385;28;20015;-81
2021/08/20 12:13:10;;;;;;;;;;;;;;;-144.99;84.77;52321.72;5026940;28;19963;-80
2021/08/20 12:15:37;;;;;;;;;;;;;;;-144.99;82.76;52154.59;5023708;28;19986;-80
2021/08/20 12:18:18;;;;;;;;;;;;;;;-144.99;80.65;52325.81;5032777;28;19975;-81
2021/08/20 12:20:44;;;;;;;;;;;;;;;-144.99;81.26;52331.91;5029253;28;19975;-78
2021/08/20 12:23:12;;;;;;;;;;;;;;;-144.99;81.45;52348.22;5032435;28;19969;-81